Time;durP1;ratioP1;P1;durP2;ratioP2;P2;SDS_P1;SDS_P2;PMS_P1;PMS_P2;Temp;Humidity;BMP_temperature;BMP_pressure;BME280_temperature;BME280_humidity;BME280_pressure;Samples;Min_cycle;Max_cycle;Signal;HPM_P1;HPM_P2
2023/12/08 00:01:12;;;;;;;8.20;2.77;;;;;;;-145.69;43.52;52305.75;5105061;28;20233;-83
2023/12/08 00:03:39;;;;;;;5.05;3.05;;;;;;;-145.69;43.27;52341.41;5102559;28;20538;-82
2023/12/08 00:06:07;;;;;;;3.53;2.23;;;;;;;-145.69;43.94;52309.72;5105098;28;20210;-82
2023/12/08 00:08:35;;;;;;;3.50;2.27;;;;;;;-145.69;43.56;52299.81;5104771;28;20217;-82
2023/12/08 00:11:07;;;;;;;4.03;2.60;;;;;;;-145.69;45.24;52311.69;5084862;28;20252;-82
2023/12/08 00:13:34;;;;;;;4.23;2.50;;;;;;;-145.69;45.07;52315.66;5084320;28;20302;-82
2023/12/08 00:16:00;;;;;;;4.37;2.67;;;;;;;-145.69;45.19;52315.66;5078651;28;20662;-82
2023/12/08 00:18:27;;;;;;;5.30;2.80;;;;;;;-145.69;45.26;52309.72;5083965;28;20292;-82
2023/12/08 00:20:54;;;;;;;5.10;2.50;;;;;;;-145.69;44.54;52307.75;5085286;28;20271;-82
2023/12/08 00:23:23;;;;;;;5.90;3.00;;;;;;;-145.69;44.18;52313.69;5085568;28;20222;-82
2023/12/08 00:25:52;;;;;;;5.20;2.27;;;;;;;-145.69;43.53;52313.69;5106159;28;20285;-82
2023/12/08 00:28:20;;;;;;;4.67;2.27;;;;;;;-145.69;44.02;52307.75;5106740;28;20181;-82
2023/12/08 00:30:46;;;;;;;3.70;2.33;;;;;;;-145.69;44.07;52361.22;5105814;28;20198;-82
2023/12/08 00:33:19;;;;;;;4.90;2.60;;;;;;;-145.69;44.30;52282.00;5105280;28;20653;-82
2023/12/08 00:35:48;;;;;;;4.60;2.60;;;;;;;-145.69;45.35;52285.97;5107757;28;20699;-82
2023/12/08 00:38:15;;;;;;;5.47;2.40;;;;;;;-145.69;44.83;52278.03;5105153;28;20197;-83
2023/12/08 00:40:42;;;;;;;6.30;2.47;;;;;;;-145.69;44.62;52337.44;5105409;28;20216;-82
2023/12/08 00:43:08;;;;;;;4.63;2.13;;;;;;;-145.69;45.29;52305.75;5103647;28;20190;-82
2023/12/08 00:45:36;;;;;;;4.00;2.53;;;;;;;-145.69;44.17;52295.84;5103631;28;20193;-82
2023/12/08 00:48:03;;;;;;;3.67;2.20;;;;;;;-145.69;43.90;52297.84;5101076;28;20201;-82
2023/12/08 00:50:30;;;;;;;4.03;2.30;;;;;;;-145.69;43.85;52323.59;5102834;28;20238;-82
2023/12/08 00:52:56;;;;;;;6.63;2.17;;;;;;;-145.69;42.77;52319.63;5103829;28;20408;-82
2023/12/08 00:55:26;;;;;;;3.67;2.10;;;;;;;-145.69;43.18;52315.66;5105750;28;20208;-82
2023/12/08 00:57:52;;;;;;;3.50;1.70;;;;;;;-145.69;43.28;52293.88;5104559;28;20204;-82
2023/12/08 01:00:21;;;;;;;2.93;1.90;;;;;;;-145.69;43.47;52293.88;5103730;28;20265;-82
2023/12/08 01:02:58;;;;;;;3.20;1.90;;;;;;;-145.69;43.97;52295.84;5104019;28;20197;-82
2023/12/08 01:05:28;;;;;;;3.43;2.10;;;;;;;-145.69;43.92;52309.72;5104419;28;20722;-82
2023/12/08 01:07:57;;;;;;;3.33;2.17;;;;;;;-145.69;44.52;52313.69;5104397;28;20201;-82
2023/12/08 01:10:24;;;;;;;2.83;1.83;;;;;;;-145.69;43.46;52305.75;5104096;28;20240;-82
2023/12/08 01:12:53;;;;;;;2.80;1.83;;;;;;;-145.69;43.47;52315.66;5103236;28;20225;-82
2023/12/08 01:15:19;;;;;;;4.27;2.30;;;;;;;-145.69;43.56;52309.72;5105224;28;20204;-82
2023/12/08 01:17:46;;;;;;;2.50;1.70;;;;;;;-145.69;43.41;52301.81;5105257;28;20198;-82
2023/12/08 01:20:14;;;;;;;3.63;1.80;;;;;;;-145.69;44.06;52293.88;5104797;28;20213;-82
2023/12/08 01:22:40;;;;;;;4.63;1.80;;;;;;;-145.69;44.39;52291.91;5104908;28;20266;-82
2023/12/08 01:25:10;;;;;;;3.93;1.87;;;;;;;-145.69;44.99;52287.94;5104904;28;20240;-82
2023/12/08 01:27:36;;;;;;;3.40;1.83;;;;;;;-145.69;44.46;52278.03;5104883;28;20220;-82
2023/12/08 01:30:04;;;;;;;5.20;2.10;;;;;;;-145.69;44.58;52309.72;5104538;28;20205;-83
2023/12/08 01:32:31;;;;;;;3.23;2.03;;;;;;;-145.69;44.20;52329.53;5101210;28;20202;-82
2023/12/08 01:34:58;;;;;;;3.73;2.30;;;;;;;-145.69;44.20;52333.47;5104441;28;20488;-82
2023/12/08 01:37:27;;;;;;;4.83;2.43;;;;;;;-145.69;44.43;52305.75;5104831;28;20196;-82
2023/12/08 01:39:54;;;;;;;3.00;2.17;;;;;;;-145.69;43.84;52285.97;5103403;28;20186;-82
2023/12/08 01:42:21;;;;;;;3.70;2.20;;;;;;;-145.69;44.28;52293.88;5104592;28;20671;-82
2023/12/08 01:44:48;;;;;;;4.30;2.27;;;;;;;-145.69;44.73;52317.66;5104521;28;20711;-82
2023/12/08 01:47:15;;;;;;;3.37;1.87;;;;;;;-145.69;44.93;52282.00;5104004;28;20209;-82
2023/12/08 01:49:42;;;;;;;3.87;1.97;;;;;;;-145.69;45.31;52289.91;5105268;28;20206;-82
2023/12/08 01:52:10;;;;;;;2.60;1.70;;;;;;;-145.69;45.78;52272.09;5105205;28;20190;-82
2023/12/08 01:54:38;;;;;;;2.87;1.73;;;;;;;-145.69;45.88;52295.84;5103939;28;20194;-82
2023/12/08 01:57:08;;;;;;;4.93;2.17;;;;;;;-145.69;45.95;52287.94;5105078;28;20204;-82
2023/12/08 01:59:35;;;;;;;3.23;1.93;;;;;;;-145.69;45.59;52295.84;5105074;28;20622;-82
2023/12/08 02:02:02;;;;;;;3.10;1.80;;;;;;;-145.69;46.64;52317.66;5104770;28;20210;-82
2023/12/08 02:04:28;;;;;;;3.67;1.97;;;;;;;-145.69;46.35;52285.97;5104902;28;20244;-82
2023/12/08 02:06:56;;;;;;;3.00;1.77;;;;;;;-145.69;46.61;52268.13;5105429;28;20198;-82
2023/12/08 02:09:22;;;;;;;4.27;2.10;;;;;;;-145.69;47.06;52337.44;5104338;28;20468;-82
2023/12/08 02:11:50;;;;;;;2.87;1.80;;;;;;;-145.69;46.90;52282.00;5104297;28;20198;-82
2023/12/08 02:14:18;;;;;;;3.03;1.93;;;;;;;-145.69;46.60;52280.00;5107927;28;20226;-82
2023/12/08 02:16:51;;;;;;;3.00;1.80;;;;;;;-145.69;46.88;52297.84;5108353;28;20289;-83
2023/12/08 02:19:18;;;;;;;3.43;1.83;;;;;;;-145.69;46.68;52309.72;5108250;28;20198;-82
2023/12/08 02:21:46;;;;;;;2.83;1.90;;;;;;;-145.69;46.80;52305.75;5108136;28;20208;-82
2023/12/08 02:24:29;;;;;;;4.87;1.83;;;;;;;-145.69;46.85;52297.84;5108137;28;20297;-82
2023/12/08 02:26:55;;;;;;;3.07;1.70;;;;;;;-145.69;47.05;52272.09;5104384;28;20198;-82
2023/12/08 02:29:22;;;;;;;2.80;1.33;;;;;;;-145.69;46.33;52301.81;5108246;28;20273;-82
2023/12/08 02:31:59;;;;;;;2.97;1.53;;;;;;;-145.69;46.60;52270.13;5108718;28;20186;-81
2023/12/08 02:34:29;;;;;;;1.87;1.40;;;;;;;-145.69;46.99;52285.97;5099135;28;20203;-82
2023/12/08 02:37:00;;;;;;;2.80;1.63;;;;;;;-145.69;46.95;52319.63;5105810;28;20585;-82
2023/12/08 02:39:30;;;;;;;3.13;1.90;;;;;;;-145.69;46.42;52321.59;5107744;28;20196;-82
2023/12/08 02:41:56;;;;;;;3.83;1.87;;;;;;;-145.69;46.16;52274.06;5108836;28;20687;-82
2023/12/08 02:44:23;;;;;;;2.93;1.83;;;;;;;-145.69;45.94;52339.44;5107692;28;20274;-82
2023/12/08 02:46:51;;;;;;;2.20;1.47;;;;;;;-145.69;45.70;52293.88;5107185;28;20202;-82
2023/12/08 02:49:18;;;;;;;1.73;1.40;;;;;;;-145.69;45.90;52287.94;5106064;28;20255;-82
2023/12/08 02:51:45;;;;;;;2.37;1.40;;;;;;;-145.69;46.24;52301.81;5106716;28;20203;-82
2023/12/08 02:54:11;;;;;;;2.73;1.70;;;;;;;-145.69;45.79;52301.81;5108349;28;20201;-82
2023/12/08 02:56:40;;;;;;;2.10;1.60;;;;;;;-145.69;45.52;52303.78;5108705;28;20205;-81
2023/12/08 02:59:07;;;;;;;2.20;1.20;;;;;;;-145.69;46.23;52309.72;5108603;28;20561;-82
2023/12/08 03:01:33;;;;;;;1.90;1.40;;;;;;;-145.69;44.77;52345.38;5107616;28;20248;-82
2023/12/08 03:04:00;;;;;;;2.13;1.50;;;;;;;-145.69;45.01;52276.06;5107638;28;20595;-82
2023/12/08 03:06:28;;;;;;;2.47;1.53;;;;;;;-145.69;44.72;52299.81;5107109;28;20198;-82
2023/12/08 03:08:55;;;;;;;4.50;1.63;;;;;;;-145.69;44.28;52274.06;5107077;28;20206;-82
2023/12/08 03:11:24;;;;;;;2.20;1.50;;;;;;;-145.69;44.79;52301.81;5103702;28;20202;-82
2023/12/08 03:13:52;;;;;;;2.60;1.70;;;;;;;-145.69;44.97;52309.72;5103400;28;20253;-82
2023/12/08 03:16:19;;;;;;;2.07;1.53;;;;;;;-145.69;45.18;52315.66;5103474;28;20281;-82
2023/12/08 03:18:46;;;;;;;1.40;1.20;;;;;;;-145.69;45.40;52315.66;5102506;28;20202;-82
2023/12/08 03:21:27;;;;;;;1.30;1.20;;;;;;;-145.69;44.98;52297.84;5103711;28;20233;-82
2023/12/08 03:23:54;;;;;;;2.33;1.27;;;;;;;-145.69;44.86;52293.88;5102186;28;20218;-83
2023/12/08 03:26:25;;;;;;;3.05;1.13;;;;;;;-145.69;45.21;52305.75;5103857;28;20459;-82
2023/12/08 03:28:55;;;;;;;2.37;1.37;;;;;;;-145.69;44.45;52254.28;5103374;28;20218;-82
2023/12/08 03:31:23;;;;;;;5.80;1.63;;;;;;;-145.69;44.76;52303.78;5103708;28;20202;-82
2023/12/08 03:33:50;;;;;;;1.80;1.37;;;;;;;-145.69;44.63;52329.53;5105644;28;20194;-82
2023/12/08 03:36:16;;;;;;;2.93;1.43;;;;;;;-145.69;44.45;52295.84;5103652;28;20198;-82
2023/12/08 03:38:43;;;;;;;3.53;1.50;;;;;;;-145.69;44.86;52289.91;5105583;28;20198;-81
2023/12/08 03:41:10;;;;;;;3.23;1.50;;;;;;;-145.69;44.93;52305.75;5105710;28;20182;-82
2023/12/08 03:43:40;;;;;;;2.00;1.50;;;;;;;-145.69;45.34;52327.53;5105855;28;20208;-82
2023/12/08 03:46:16;;;;;;;2.07;1.20;;;;;;;-145.69;46.07;52317.66;5104805;28;20312;-82
2023/12/08 03:48:42;;;;;;;2.07;1.50;;;;;;;-145.69;46.13;52309.72;5105543;28;20258;-82
2023/12/08 03:51:11;;;;;;;2.00;1.23;;;;;;;-145.69;45.75;52287.94;5105174;28;20204;-82
2023/12/08 03:53:38;;;;;;;4.07;1.67;;;;;;;-145.69;45.32;52301.81;5104481;28;20202;-82
2023/12/08 03:56:06;;;;;;;2.07;1.50;;;;;;;-145.69;46.05;52329.53;5105360;28;20220;-82
2023/12/08 03:58:35;;;;;;;2.20;1.43;;;;;;;-145.69;45.64;52291.91;5105186;28;20548;-82
2023/12/08 04:01:04;;;;;;;2.20;1.20;;;;;;;-145.69;45.01;52325.56;5106719;28;20252;-82
2023/12/08 04:03:33;;;;;;;1.60;1.07;;;;;;;-145.69;44.48;52282.00;5106261;28;20206;-82
2023/12/08 04:06:00;;;;;;;2.20;1.40;;;;;;;-145.69;44.67;52283.97;5105273;28;20230;-82
2023/12/08 04:08:26;;;;;;;4.27;1.53;;;;;;;-145.69;44.45;52301.81;5105563;28;20252;-82
2023/12/08 04:10:53;;;;;;;1.40;1.20;;;;;;;-145.69;43.85;52323.59;5106734;28;20202;-82
2023/12/08 04:13:19;;;;;;;2.57;1.27;;;;;;;-145.69;44.56;52289.91;5105897;28;20760;-82
2023/12/08 04:15:46;;;;;;;2.03;1.40;;;;;;;-145.69;45.16;52301.81;5103886;28;20198;-82
2023/12/08 04:18:12;;;;;;;3.20;1.10;;;;;;;-145.69;45.47;52299.81;5100119;28;20283;-81
2023/12/08 04:20:40;;;;;;;1.70;1.10;;;;;;;-145.69;45.24;52280.00;5104084;28;20217;-82
2023/12/08 04:23:10;;;;;;;1.23;0.90;;;;;;;-145.69;44.93;52319.63;5102014;28;20202;-82
2023/12/08 04:25:36;;;;;;;1.53;1.00;;;;;;;-145.69;45.22;52282.00;5100919;28;20622;-82
2023/12/08 04:28:04;;;;;;;1.20;1.07;;;;;;;-145.69;45.40;52289.91;5101182;28;20198;-80
2023/12/08 04:30:31;;;;;;;1.13;1.00;;;;;;;-145.69;45.42;52278.03;5103282;28;20201;-81
2023/12/08 04:33:03;;;;;;;1.87;1.10;;;;;;;-145.69;44.77;52289.91;5101334;28;20607;-82
2023/12/08 04:35:30;;;;;;;1.07;0.97;;;;;;;-145.69;45.29;52293.88;5099336;28;20278;-82
2023/12/08 04:37:59;;;;;;;1.10;1.00;;;;;;;-145.69;46.20;52280.00;5094939;28;20199;-82
2023/12/08 04:40:25;;;;;;;1.60;0.90;;;;;;;-145.69;46.79;52289.91;5079918;28;20232;-82
2023/12/08 04:42:52;;;;;;;1.40;1.07;;;;;;;-145.69;46.19;52295.84;5081425;28;20240;-82
2023/12/08 04:45:18;;;;;;;1.20;1.00;;;;;;;-145.69;46.25;52289.91;5080553;28;20227;-82
2023/12/08 04:47:45;;;;;;;1.90;0.93;;;;;;;-145.69;46.51;52270.13;5083070;28;20210;-82
2023/12/08 04:50:11;;;;;;;3.03;0.90;;;;;;;-145.69;47.11;52287.94;5099062;28;20205;-82
2023/12/08 04:52:38;;;;;;;1.80;1.17;;;;;;;-145.69;47.53;52278.03;5102033;28;20198;-82
2023/12/08 04:55:07;;;;;;;1.37;1.13;;;;;;;-145.69;47.49;52337.44;5101091;28;20598;-82
2023/12/08 04:57:33;;;;;;;1.20;1.10;;;;;;;-145.69;47.35;52297.84;5102098;28;20210;-82
2023/12/08 05:00:09;;;;;;;1.80;1.17;;;;;;;-145.69;47.40;52297.84;5101396;28;20194;-81
2023/12/08 05:02:35;;;;;;;0.80;0.70;;;;;;;-145.69;47.25;52325.56;5101863;28;20201;-82
2023/12/08 05:05:03;;;;;;;1.80;1.37;;;;;;;-145.69;46.74;52345.38;5098083;28;20312;-81
2023/12/08 05:07:29;;;;;;;1.40;0.80;;;;;;;-145.69;46.79;52285.97;5097811;28;20247;-81
2023/12/08 05:09:56;;;;;;;1.83;1.00;;;;;;;-145.69;46.62;52293.88;5095800;28;20288;-82
2023/12/08 05:12:24;;;;;;;1.50;1.20;;;;;;;-145.69;46.07;52278.03;5096441;28;20231;-81
2023/12/08 05:14:50;;;;;;;2.17;1.10;;;;;;;-145.69;46.21;52321.59;5096977;28;20217;-82
2023/12/08 05:17:17;;;;;;;1.20;1.10;;;;;;;-145.69;46.08;52297.84;5095571;28;20206;-82
2023/12/08 05:19:43;;;;;;;1.40;1.10;;;;;;;-145.69;46.29;52270.13;5097685;28;20580;-82
2023/12/08 05:22:12;;;;;;;2.40;1.60;;;;;;;-145.69;46.12;52258.22;5097163;28;20206;-82
2023/12/08 05:24:38;;;;;;;2.47;1.30;;;;;;;-145.69;45.85;52266.16;5095597;28;20206;-81
2023/12/08 05:27:05;;;;;;;6.90;2.03;;;;;;;-145.69;48.19;52278.03;5093889;28;20680;-82
2023/12/08 05:29:33;;;;;;;5.43;2.23;;;;;;;-145.69;49.02;52283.97;5094439;28;20205;-81
2023/12/08 05:32:00;;;;;;;2.90;1.40;;;;;;;-145.69;51.63;52262.19;5093928;28;20198;-81
2023/12/08 05:34:26;;;;;;;1.10;0.97;;;;;;;-145.69;53.58;52285.97;5092981;28;20194;-81
2023/12/08 05:36:53;;;;;;;1.30;0.97;;;;;;;-145.69;54.29;52285.97;5092858;28;20198;-82
2023/12/08 05:39:20;;;;;;;2.97;1.10;;;;;;;-145.69;55.01;52242.38;5094848;28;20210;-81
2023/12/08 05:41:46;;;;;;;3.97;1.20;;;;;;;-145.69;54.51;52278.03;5093832;28;20228;-81
2023/12/08 05:44:15;;;;;;;1.90;1.10;;;;;;;-145.69;55.05;52285.97;5093678;28;20202;-81
2023/12/08 05:46:44;;;;;;;1.60;0.90;;;;;;;-145.69;56.10;52272.09;5095066;28;20264;-81
2023/12/08 05:49:12;;;;;;;1.03;0.93;;;;;;;-145.69;56.87;52278.03;5098384;28;20194;-81
2023/12/08 05:51:41;;;;;;;1.00;0.80;;;;;;;-145.69;57.38;52260.22;5100300;28;20198;-82
2023/12/08 05:54:07;;;;;;;1.80;1.10;;;;;;;-145.69;56.80;52266.16;5101756;28;20221;-82
2023/12/08 05:56:34;;;;;;;2.23;1.60;;;;;;;-145.69;57.59;52266.16;5102828;28;20205;-82
2023/12/08 05:59:00;;;;;;;1.70;1.20;;;;;;;-145.69;57.68;52319.63;5105485;28;20205;-81
2023/12/08 06:01:27;;;;;;;2.90;1.70;;;;;;;-145.69;58.43;52303.78;5101874;28;20211;-82
2023/12/08 06:03:55;;;;;;;3.47;2.10;;;;;;;-145.69;58.31;52254.28;5103598;28;20664;-82
2023/12/08 06:06:21;;;;;;;2.83;2.30;;;;;;;-145.69;58.75;52289.91;5098484;28;20225;-81
2023/12/08 06:08:48;;;;;;;1.30;1.20;;;;;;;-145.69;58.93;52283.97;5098693;28;20194;-82
2023/12/08 06:11:15;;;;;;;1.93;1.37;;;;;;;-145.69;59.46;52289.91;5099157;28;20202;-82
2023/12/08 06:13:41;;;;;;;1.63;1.30;;;;;;;-145.69;59.40;52319.63;5096253;28;20229;-81
2023/12/08 06:16:08;;;;;;;2.13;1.10;;;;;;;-145.69;60.79;52291.91;5096540;28;20237;-80
2023/12/08 06:18:35;;;;;;;1.10;0.90;;;;;;;-145.69;60.22;52280.00;5096084;28;20534;-80
2023/12/08 06:21:03;;;;;;;1.53;1.13;;;;;;;-145.69;60.09;52276.06;5096171;28;20649;-80
2023/12/08 06:23:30;;;;;;;1.40;1.10;;;;;;;-145.69;60.87;52317.66;5096396;28;20588;-81
2023/12/08 06:25:58;;;;;;;1.43;1.10;;;;;;;-145.69;60.56;52266.16;5096386;28;20233;-81
2023/12/08 06:28:24;;;;;;;3.20;1.10;;;;;;;-145.69;60.31;52297.84;5095855;28;20285;-82
2023/12/08 06:30:53;;;;;;;1.13;1.03;;;;;;;-145.69;61.27;52291.91;5096325;28;20572;-79
2023/12/08 06:33:19;;;;;;;1.23;0.90;;;;;;;-145.69;61.11;52285.97;5095313;28;20202;-80
2023/12/08 06:35:46;;;;;;;1.60;1.20;;;;;;;-145.69;60.75;52270.13;5095855;28;20209;-81
2023/12/08 06:38:15;;;;;;;0.90;0.90;;;;;;;-145.69;61.41;52291.91;5094634;28;20730;-82
2023/12/08 06:40:41;;;;;;;1.97;1.40;;;;;;;-145.69;60.60;52274.06;5095952;28;20300;-82
2023/12/08 06:43:09;;;;;;;2.30;1.40;;;;;;;-145.69;60.61;52282.00;5095981;28;20206;-81
2023/12/08 06:45:43;;;;;;;2.17;1.33;;;;;;;-145.69;60.89;52278.03;5092272;28;20229;-80
2023/12/08 06:48:09;;;;;;;2.70;1.57;;;;;;;-145.69;61.05;52256.25;5095792;28;20194;-80
2023/12/08 06:50:36;;;;;;;2.67;1.23;;;;;;;-145.69;61.27;52289.91;5095865;28;20195;-82
2023/12/08 06:53:09;;;;;;;2.80;1.70;;;;;;;-145.69;61.26;52276.06;5094885;28;20460;-81
2023/12/08 06:55:39;;;;;;;3.10;1.80;;;;;;;-145.69;61.71;52278.03;5095424;28;20197;-81
2023/12/08 06:58:05;;;;;;;2.27;1.40;;;;;;;-145.69;61.62;52270.13;5092230;28;20259;-81
2023/12/08 07:00:41;;;;;;;2.50;1.63;;;;;;;-145.69;61.51;52293.88;5095743;28;20214;-81
2023/12/08 07:03:08;;;;;;;3.37;1.60;;;;;;;-145.69;61.75;52282.00;5095503;28;20548;-81
2023/12/08 07:05:38;;;;;;;2.50;1.57;;;;;;;-145.69;62.00;52282.00;5093597;28;20221;-81
2023/12/08 07:08:06;;;;;;;3.37;1.93;;;;;;;-145.69;62.14;52289.91;5095495;28;20202;-81
2023/12/08 07:10:32;;;;;;;11.70;2.07;;;;;;;-145.69;61.69;52293.88;5095358;28;20206;-83
2023/12/08 07:13:15;;;;;;;3.07;1.60;;;;;;;-145.69;61.60;52291.91;5094837;28;20230;-81
2023/12/08 07:15:42;;;;;;;3.13;1.70;;;;;;;-145.69;62.87;52317.66;5095157;28;20198;-82
2023/12/08 07:18:09;;;;;;;4.20;1.83;;;;;;;-145.69;62.25;52309.72;5095207;28;20198;-81
2023/12/08 07:20:35;;;;;;;3.43;2.00;;;;;;;-145.69;62.04;52321.59;5094291;28;20275;-80
2023/12/08 07:23:04;;;;;;;2.43;1.73;;;;;;;-145.69;61.36;52315.66;5093969;28;20202;-80
2023/12/08 07:25:33;;;;;;;3.37;1.90;;;;;;;-145.69;61.24;52282.00;5095273;28;20255;-79
2023/12/08 07:27:59;;;;;;;3.87;1.97;;;;;;;-145.69;61.66;52291.91;5095082;28;20194;-81
2023/12/08 07:30:27;;;;;;;2.70;1.90;;;;;;;-145.69;61.88;52285.97;5095495;28;20198;-81
2023/12/08 07:32:54;;;;;;;3.67;2.13;;;;;;;-145.69;61.63;52262.19;5094910;28;20194;-81
2023/12/08 07:35:20;;;;;;;3.40;2.13;;;;;;;-145.69;61.52;52325.56;5094772;28;20198;-82
2023/12/08 07:37:47;;;;;;;127.67;34.90;;;;;;;-145.69;61.51;52329.53;5094699;28;20224;-81
2023/12/08 07:40:14;;;;;;;15.27;6.97;;;;;;;-145.69;61.39;52309.72;5095077;28;20240;-78
2023/12/08 07:42:40;;;;;;;8.47;5.27;;;;;;;-145.69;61.79;52321.59;5094753;28;20583;-79
2023/12/08 07:45:08;;;;;;;3.40;2.40;;;;;;;-145.69;61.12;52309.72;5094318;28;20289;-80
2023/12/08 07:47:40;;;;;;;4.97;2.20;;;;;;;-145.69;60.70;52305.75;5094581;28;20194;-81
2023/12/08 07:50:07;;;;;;;2.90;1.90;;;;;;;-145.69;60.40;52305.75;5094624;28;20729;-80
2023/12/08 07:52:34;;;;;;;3.30;2.17;;;;;;;-145.69;60.70;52274.06;5094842;28;20277;-81
2023/12/08 07:55:00;;;;;;;4.67;2.30;;;;;;;-145.69;61.12;52289.91;5094512;28;20288;-81
2023/12/08 07:57:28;;;;;;;4.47;2.63;;;;;;;-145.69;60.61;52329.53;5094298;28;20199;-81
2023/12/08 07:59:56;;;;;;;3.57;2.33;;;;;;;-145.69;60.86;52289.91;5094203;28;20289;-81
2023/12/08 08:02:23;;;;;;;3.63;2.30;;;;;;;-145.69;61.09;52293.88;5094108;28;20202;-81
2023/12/08 08:04:51;;;;;;;2.27;1.53;;;;;;;-145.69;61.08;52266.16;5094236;28;20224;-81
2023/12/08 08:07:17;;;;;;;4.70;2.37;;;;;;;-145.69;60.32;52278.03;5093825;28;20218;-81
2023/12/08 08:09:44;;;;;;;5.17;2.40;;;;;;;-145.69;61.34;52274.06;5094479;28;20198;-82
2023/12/08 08:12:11;;;;;;;2.93;1.80;;;;;;;-145.69;60.78;52309.72;5094284;28;20198;-82
2023/12/08 08:14:39;;;;;;;3.13;1.60;;;;;;;-145.69;60.32;52266.16;5093847;28;20272;-79
2023/12/08 08:17:05;;;;;;;4.53;1.90;;;;;;;-145.69;60.81;52272.09;5093984;28;20213;-81
2023/12/08 08:19:32;;;;;;;3.70;2.10;;;;;;;-145.69;60.40;52289.91;5094086;28;20247;-81
2023/12/08 08:22:00;;;;;;;2.77;1.80;;;;;;;-145.69;61.01;52297.84;5094155;28;20205;-81
2023/12/08 08:24:27;;;;;;;2.07;1.70;;;;;;;-145.69;60.75;52262.19;5094123;28;20200;-81
2023/12/08 08:26:54;;;;;;;1.43;1.27;;;;;;;-145.69;60.95;52315.66;5093557;28;20240;-80
2023/12/08 08:29:24;;;;;;;2.10;1.30;;;;;;;-145.69;60.92;52282.00;5092923;28;20226;-81
2023/12/08 08:31:52;;;;;;;1.83;1.40;;;;;;;-145.69;60.92;52276.06;5093756;28;20198;-81
2023/12/08 08:34:19;;;;;;;1.90;1.40;;;;;;;-145.69;60.08;52270.13;5093798;28;20641;-80
2023/12/08 08:36:45;;;;;;;3.63;1.43;;;;;;;-145.69;59.79;52309.72;5093746;28;20661;-80
2023/12/08 08:39:14;;;;;;;1.20;1.07;;;;;;;-145.69;60.19;52266.16;5093914;28;20206;-80
2023/12/08 08:41:44;;;;;;;1.90;1.30;;;;;;;-145.69;60.35;52285.97;5088352;28;20252;-81
2023/12/08 08:44:10;;;;;;;1.47;1.13;;;;;;;-145.69;59.99;52307.75;5093534;28;20202;-81
2023/12/08 08:46:38;;;;;;;1.50;1.17;;;;;;;-145.69;59.91;52254.28;5093579;28;20226;-81
2023/12/08 08:49:05;;;;;;;2.70;0.97;;;;;;;-145.69;59.39;52278.03;5093446;28;20206;-81
2023/12/08 08:51:32;;;;;;;1.53;1.13;;;;;;;-145.69;59.22;52274.06;5093528;28;20670;-81
2023/12/08 08:53:58;;;;;;;2.00;1.30;;;;;;;-145.69;59.47;52283.97;5093438;28;20652;-80
2023/12/08 08:56:26;;;;;;;2.10;1.20;;;;;;;-145.69;58.71;52276.06;5093254;28;20198;-81
2023/12/08 08:58:55;;;;;;;3.23;1.57;;;;;;;-145.69;58.79;52252.28;5092990;28;20548;-81
2023/12/08 09:01:21;;;;;;;2.20;1.47;;;;;;;-145.69;58.44;52295.84;5093163;28;20202;-81
2023/12/08 09:03:48;;;;;;;3.23;1.67;;;;;;;-145.69;58.46;52274.06;5094235;28;20198;-81
2023/12/08 09:06:14;;;;;;;1.27;0.90;;;;;;;-145.69;59.03;52282.00;5096103;28;20213;-82
2023/12/08 09:08:41;;;;;;;3.50;1.30;;;;;;;-145.69;59.16;52270.13;5099807;28;20254;-82
2023/12/08 09:11:13;;;;;;;1.73;1.10;;;;;;;-145.69;59.11;52321.59;5101426;28;20656;-82
2023/12/08 09:13:41;;;;;;;3.20;1.50;;;;;;;-145.69;59.17;52291.91;5109045;28;20631;-83
2023/12/08 09:16:08;;;;;;;2.80;1.10;;;;;;;-145.69;59.29;52282.00;5101352;28;20194;-83
2023/12/08 09:18:37;;;;;;;1.67;1.00;;;;;;;-145.69;59.47;52282.00;5102922;28;20261;-81
2023/12/08 09:21:05;;;;;;;2.37;1.13;;;;;;;-145.69;58.94;52278.03;5099430;28;20195;-83
2023/12/08 09:23:34;;;;;;;0.70;0.70;;;;;;;-145.69;58.77;52238.44;5093430;28;20288;-81
2023/12/08 09:26:01;;;;;;;3.50;1.73;;;;;;;-145.69;58.46;52289.91;5093724;28;20346;-82
2023/12/08 09:28:29;;;;;;;3.97;2.50;;;;;;;-145.69;58.61;52287.94;5095370;28;20186;-83
2023/12/08 09:31:00;;;;;;;1.40;1.20;;;;;;;-145.69;58.71;52276.06;5097768;28;20205;-82
2023/12/08 09:33:27;;;;;;;1.73;1.13;;;;;;;-145.69;58.37;52297.84;5099037;28;20202;-82
2023/12/08 09:35:55;;;;;;;1.17;1.07;;;;;;;-145.69;58.68;52276.06;5102194;28;20202;-82
2023/12/08 09:38:21;;;;;;;1.43;1.07;;;;;;;-145.69;57.74;52274.06;5105354;28;20599;-82
2023/12/08 09:40:48;;;;;;;1.97;1.13;;;;;;;-145.69;58.06;52274.06;5100575;28;20565;-81
2023/12/08 09:43:21;;;;;;;1.67;1.33;;;;;;;-145.69;57.43;52264.16;5097399;28;20209;-82
2023/12/08 09:45:49;;;;;;;2.50;1.20;;;;;;;-145.69;57.98;52270.13;5097491;28;20261;-82
2023/12/08 09:48:32;;;;;;;1.40;1.07;;;;;;;-145.69;57.42;52282.00;5099337;28;20204;-81
2023/12/08 09:51:01;;;;;;;2.23;0.93;;;;;;;-145.69;57.94;52282.00;5098462;28;20297;-81
2023/12/08 09:53:28;;;;;;;0.80;0.77;;;;;;;-145.69;58.15;52272.09;5099834;28;20198;-81
2023/12/08 09:55:55;;;;;;;3.17;0.80;;;;;;;-145.69;58.01;52258.22;5097123;28;20230;-80
2023/12/08 09:58:22;;;;;;;1.50;0.80;;;;;;;-145.69;58.28;52256.25;5092821;28;20204;-81
2023/12/08 10:00:50;;;;;;;0.67;0.67;;;;;;;-145.69;57.85;52289.91;5083736;28;20552;-80
2023/12/08 10:03:17;;;;;;;0.60;0.60;;;;;;;-145.69;57.89;52274.06;5095334;28;20664;-80
2023/12/08 10:05:44;;;;;;;0.90;0.70;;;;;;;-145.69;58.46;52258.22;5098318;28;20549;-81
2023/12/08 10:08:11;;;;;;;1.80;0.63;;;;;;;-145.69;58.22;52282.00;5089054;28;20230;-82
2023/12/08 10:10:38;;;;;;;2.10;0.80;;;;;;;-145.69;58.05;52309.72;5092994;28;20665;-81
2023/12/08 10:13:05;;;;;;;3.47;0.70;;;;;;;-145.69;57.40;52246.34;5092632;28;20234;-81
2023/12/08 10:15:31;;;;;;;0.70;0.70;;;;;;;-145.69;57.94;52254.28;5092786;28;20194;-81
2023/12/08 10:17:58;;;;;;;2.20;1.10;;;;;;;-145.69;58.53;52272.09;5093410;28;20198;-81
2023/12/08 10:20:26;;;;;;;1.00;0.90;;;;;;;-145.69;57.84;52293.88;5092854;28;20198;-81
2023/12/08 10:22:54;;;;;;;1.53;1.23;;;;;;;-145.69;57.35;52264.16;5092673;28;20218;-80
2023/12/08 10:25:22;;;;;;;1.03;0.93;;;;;;;-145.69;56.63;52250.31;5093123;28;20198;-81
2023/12/08 10:27:50;;;;;;;0.80;0.80;;;;;;;-145.69;56.53;52252.28;5093018;28;20627;-81
2023/12/08 10:30:18;;;;;;;1.10;1.00;;;;;;;-145.69;56.84;52228.53;5095587;28;20288;-81
2023/12/08 10:32:45;;;;;;;0.63;0.63;;;;;;;-145.69;56.91;52258.22;5095164;28;20195;-81
2023/12/08 10:35:12;;;;;;;2.63;1.50;;;;;;;-145.69;56.14;52278.03;5105627;28;20202;-82
2023/12/08 10:37:41;;;;;;;2.13;1.10;;;;;;;-145.69;56.50;52282.00;5098295;28;20194;-82
2023/12/08 10:40:09;;;;;;;1.43;1.10;;;;;;;-145.69;56.02;52274.06;5100046;28;20241;-82
2023/12/08 10:42:36;;;;;;;2.03;1.10;;;;;;;-145.69;55.54;52264.16;5099419;28;20202;-82
2023/12/08 10:45:10;;;;;;;1.97;1.20;;;;;;;-145.69;55.91;52293.88;5098911;28;20560;-82
2023/12/08 10:47:38;;;;;;;0.93;0.70;;;;;;;-145.69;56.19;52266.16;5105412;28;20269;-81
2023/12/08 10:50:06;;;;;;;1.90;1.13;;;;;;;-145.69;55.85;52285.97;5104076;28;20198;-81
2023/12/08 10:52:33;;;;;;;1.50;0.97;;;;;;;-145.69;55.49;52276.06;5103769;28;20198;-82
2023/12/08 10:55:01;;;;;;;1.87;1.20;;;;;;;-145.69;55.21;52274.06;5105564;28;20198;-82
2023/12/08 10:57:27;;;;;;;2.13;1.10;;;;;;;-145.69;55.68;52254.28;5103546;28;20230;-82
2023/12/08 10:59:58;;;;;;;2.30;1.40;;;;;;;-145.69;55.46;52278.03;5105535;28;20212;-82
2023/12/08 11:02:31;;;;;;;1.67;0.87;;;;;;;-145.69;55.75;52268.13;5101741;28;20692;-82
2023/12/08 11:05:03;;;;;;;1.17;1.00;;;;;;;-145.69;55.82;52234.47;5103586;28;20198;-80
2023/12/08 11:07:33;;;;;;;1.40;0.80;;;;;;;-145.69;55.93;52250.31;5103603;28;20221;-82
2023/12/08 11:10:07;;;;;;;0.90;0.77;;;;;;;-145.69;55.44;52250.31;5107474;28;20228;-82
2023/12/08 11:12:39;;;;;;;1.37;0.83;;;;;;;-145.69;55.27;52240.41;5105613;28;20198;-82
2023/12/08 11:15:15;;;;;;;2.50;0.60;;;;;;;-145.69;55.11;52282.00;5102487;28;20212;-81
2023/12/08 11:17:48;;;;;;;2.23;1.40;;;;;;;-145.69;55.04;52258.22;5103496;28;20234;-82
2023/12/08 11:20:16;;;;;;;1.73;1.10;;;;;;;-145.69;55.33;52250.31;5103821;28;20228;-80